Time;durP1;ratioP1;P1;durP2;ratioP2;P2;SDS_P1;SDS_P2;PMS_P1;PMS_P2;Temp;Humidity;BMP_temperature;BMP_pressure;BME280_temperature;BME280_humidity;BME280_pressure;Samples;Min_cycle;Max_cycle;Signal;HPM_P1;HPM_P2
2022/11/27 00:19:23;;;;;;;2.43;2.23;;;;;;;;;;5630828;23;20661;-91
2022/11/27 00:21:49;;;;;;;2.60;2.50;;;;;;;;;;4923968;29;20447;-90
2022/11/27 00:24:15;;;;;;;3.90;2.70;;;;;;;;;;4929497;29;21182;-90
2022/11/27 00:26:45;;;;;;;3.80;2.83;;;;;;;;;;4951366;29;20497;-89
2022/11/27 00:29:11;;;;;;;4.07;3.55;;;;;;;;;;4930583;28;20822;-90
2022/11/27 00:31:59;;;;;;;3.77;2.70;;;;;;;;;;4926105;29;20214;-89
2022/11/27 00:34:41;;;;;;;7.07;3.07;;;;;;;;;;4930728;28;20465;-91
2022/11/27 00:37:13;;;;;;;4.53;2.57;;;;;;;;;;4917016;29;20524;-89
2022/11/27 00:43:08;;;;;;;;;;;;;;;;;;;;;
2022/11/27 00:46:17;;;;;;;2.57;2.47;;;;;;;;;;4944034;29;20209;-89
2022/11/27 00:49:21;;;;;;;2.47;2.27;;;;;;;;;;4937493;29;21173;-89
2022/11/27 01:02:13;;;;;;;5.93;2.80;;;;;;;;;;5447423;23;20482;-90
2022/11/27 01:04:39;;;;;;;6.37;2.83;;;;;;;;;;4913916;29;20443;-90
2022/11/27 01:07:05;;;;;;;3.10;3.00;;;;;;;;;;4931600;29;20449;-90
2022/11/27 01:09:31;;;;;;;4.00;2.80;;;;;;;;;;4933881;29;20443;-90
2022/11/27 01:12:00;;;;;;;2.65;2.45;;;;;;;;;;4931732;29;20454;-90
2022/11/27 01:14:30;;;;;;;3.07;2.87;;;;;;;;;;4933902;29;20221;-89
2022/11/27 01:16:56;;;;;;;2.73;2.53;;;;;;;;;;4941021;28;20523;-90
2022/11/27 01:19:23;;;;;;;2.93;2.73;;;;;;;;;;4935068;29;20875;-90
2022/11/27 01:21:50;;;;;;;5.30;2.97;;;;;;;;;;4935104;29;20422;-89
2022/11/27 01:24:18;;;;;;;3.35;3.00;;;;;;;;;;4962236;29;20712;-90
2022/11/27 01:26:44;;;;;;;7.33;2.77;;;;;;;;;;4954352;29;20191;-90
2022/11/27 01:29:11;;;;;;;3.33;3.03;;;;;;;;;;4943024;29;20537;-89
2022/11/27 01:31:37;;;;;;;2.95;2.75;;;;;;;;;;4935646;29;20211;-90
2022/11/27 01:34:12;;;;;;;2.70;2.50;;;;;;;;;;4936982;29;20187;-90
2022/11/27 01:36:41;;;;;;;3.10;2.80;;;;;;;;;;4922098;29;20453;-89
2022/11/27 01:39:08;;;;;;;3.57;3.23;;;;;;;;;;4918872;29;21161;-88
2022/11/27 01:41:35;;;;;;;3.10;2.50;;;;;;;;;;4931380;28;20745;-90
2022/11/27 01:44:20;;;;;;;2.53;1.70;;;;;;;;;;4934593;29;20434;-90
2022/11/27 01:46:47;;;;;;;2.83;2.73;;;;;;;;;;4933855;28;20445;-88
2022/11/27 01:49:28;;;;;;;3.37;3.07;;;;;;;;;;4931967;29;20419;-89
2022/11/27 01:51:59;;;;;;;5.70;3.30;;;;;;;;;;4952405;29;20481;-89
2022/11/27 01:54:26;;;;;;;4.27;3.07;;;;;;;;;;4935924;29;20183;-89
2022/11/27 01:56:55;;;;;;;7.47;2.60;;;;;;;;;;4951959;29;20512;-89
2022/11/27 01:59:21;;;;;;;3.33;2.90;;;;;;;;;;4920412;29;20439;-89
2022/11/27 02:01:47;;;;;;;2.10;2.10;;;;;;;;;;4936427;29;20988;-88
2022/11/27 02:04:16;;;;;;;3.90;2.77;;;;;;;;;;4953200;29;20466;-89
2022/11/27 02:06:42;;;;;;;3.50;3.27;;;;;;;;;;4952183;29;20441;-90
2022/11/27 02:09:08;;;;;;;3.93;3.60;;;;;;;;;;4955160;29;20464;-89
2022/11/27 02:11:58;;;;;;;8.65;3.78;;;;;;;;;;4953774;28;20434;-90
2022/11/27 02:14:24;;;;;;;2.93;2.70;;;;;;;;;;4957659;29;20209;-89
2022/11/27 02:17:02;;;;;;;2.63;2.10;;;;;;;;;;4968252;29;20592;-89
2022/11/27 02:19:34;;;;;;;7.80;3.10;;;;;;;;;;4965906;29;20498;-89
2022/11/27 02:22:06;;;;;;;3.60;3.13;;;;;;;;;;4971436;28;20486;-90
2022/11/27 02:25:19;;;;;;;5.33;3.27;;;;;;;;;;4976277;29;20437;-89
2022/11/27 02:27:54;;;;;;;4.95;3.03;;;;;;;;;;4962166;29;20465;-89
2022/11/27 02:30:20;;;;;;;3.58;2.90;;;;;;;;;;4970758;29;20237;-89
2022/11/27 02:33:04;;;;;;;6.95;3.78;;;;;;;;;;4954330;29;20207;-88
2022/11/27 02:35:30;;;;;;;4.37;3.93;;;;;;;;;;4960480;29;20229;-91
2022/11/27 02:37:59;;;;;;;3.60;3.00;;;;;;;;;;4969112;29;20435;-91
2022/11/27 02:40:28;;;;;;;3.90;3.45;;;;;;;;;;4962283;29;20482;-88
2022/11/27 02:43:03;;;;;;;7.53;3.20;;;;;;;;;;4937177;28;20274;-88
2022/11/27 02:45:33;;;;;;;3.10;2.90;;;;;;;;;;4954738;29;20455;-89
2022/11/27 02:47:59;;;;;;;5.10;3.75;;;;;;;;;;4937173;29;20427;-88
2022/11/27 02:50:27;;;;;;;9.73;3.50;;;;;;;;;;4956172;29;20186;-92
2022/11/27 02:52:57;;;;;;;3.80;3.60;;;;;;;;;;4956325;28;20442;-94
2022/11/27 02:55:25;;;;;;;7.57;3.13;;;;;;;;;;4957199;29;20194;-93
2022/11/27 02:57:53;;;;;;;3.30;3.05;;;;;;;;;;4945195;29;20196;-94
2022/11/27 03:00:19;;;;;;;4.15;3.78;;;;;;;;;;4956064;28;20205;-93
2022/11/27 03:02:51;;;;;;;3.77;3.47;;;;;;;;;;4955650;28;20231;-93
2022/11/27 03:05:26;;;;;;;4.82;3.20;;;;;;;;;;4957113;29;20442;-93
2022/11/27 03:08:04;;;;;;;3.23;3.07;;;;;;;;;;4945620;29;20190;-92
2022/11/27 03:10:35;;;;;;;3.80;3.47;;;;;;;;;;4951240;29;20438;-92
2022/11/27 03:13:07;;;;;;;8.23;3.40;;;;;;;;;;4953523;29;20454;-94
2022/11/27 03:16:09;;;;;;;5.88;4.10;;;;;;;;;;4937511;29;20427;-92
2022/11/27 03:18:43;;;;;;;5.15;3.22;;;;;;;;;;4892541;29;20196;-93
2022/11/27 03:21:26;;;;;;;2.72;2.60;;;;;;;;;;4936858;29;20226;-94
2022/11/27 03:24:00;;;;;;;6.60;3.30;;;;;;;;;;4952498;29;20194;-92
2022/11/27 03:26:39;;;;;;;4.35;3.20;;;;;;;;;;4940179;28;20652;-92
2022/11/27 03:29:14;;;;;;;3.17;2.83;;;;;;;;;;4957171;29;20202;-94
2022/11/27 03:31:41;;;;;;;3.15;2.90;;;;;;;;;;4943015;29;20455;-91
2022/11/27 03:34:10;;;;;;;3.67;3.47;;;;;;;;;;4957258;29;20191;-92
2022/11/27 03:36:48;;;;;;;5.23;3.73;;;;;;;;;;4961430;29;20453;-92
2022/11/27 03:39:17;;;;;;;4.43;3.13;;;;;;;;;;4966137;29;20535;-93
2022/11/27 03:41:53;;;;;;;3.65;3.45;;;;;;;;;;4961251;29;20686;-96
2022/11/27 03:44:29;;;;;;;6.80;3.50;;;;;;;;;;4944835;29;20186;-92
2022/11/27 03:47:01;;;;;;;7.57;3.30;;;;;;;;;;4951935;28;20194;-92
2022/11/27 03:49:40;;;;;;;4.13;3.27;;;;;;;;;;4956326;29;20183;-93
2022/11/27 03:52:08;;;;;;;4.07;3.72;;;;;;;;;;4948540;28;20459;-93
2022/11/27 03:54:42;;;;;;;4.00;3.60;;;;;;;;;;4954872;29;20183;-92
2022/11/27 03:57:18;;;;;;;5.18;3.80;;;;;;;;;;4940575;28;20214;-92
2022/11/27 03:59:46;;;;;;;6.50;4.43;;;;;;;;;;4953652;29;20869;-93
2022/11/27 04:02:18;;;;;;;3.63;3.28;;;;;;;;;;4953287;28;20233;-93
2022/11/27 04:04:44;;;;;;;3.90;3.60;;;;;;;;;;4947356;29;20789;-93
2022/11/27 04:07:18;;;;;;;6.22;3.33;;;;;;;;;;4946972;29;20186;-93
2022/11/27 04:09:44;;;;;;;9.60;3.70;;;;;;;;;;4936559;29;20190;-93
2022/11/27 04:12:13;;;;;;;3.87;3.57;;;;;;;;;;4952112;29;20201;-93
2022/11/27 04:14:39;;;;;;;4.40;3.83;;;;;;;;;;4955712;29;21065;-93
2022/11/27 04:17:05;;;;;;;5.90;3.90;;;;;;;;;;4953206;29;20437;-93
2022/11/27 04:19:31;;;;;;;4.07;3.60;;;;;;;;;;4943916;29;20449;-93
2022/11/27 04:21:58;;;;;;;4.13;3.73;;;;;;;;;;4955413;29;20438;-94
2022/11/27 04:24:24;;;;;;;6.03;4.27;;;;;;;;;;4956432;29;20455;-93
2022/11/27 04:26:55;;;;;;;4.38;3.50;;;;;;;;;;4943178;29;20427;-92
2022/11/27 04:29:22;;;;;;;5.75;4.18;;;;;;;;;;4951327;29;20210;-92
2022/11/27 04:31:48;;;;;;;5.30;4.18;;;;;;;;;;4948348;28;20211;-92
2022/11/27 04:34:31;;;;;;;7.70;3.83;;;;;;;;;;4958663;29;20190;-92
2022/11/27 04:37:00;;;;;;;3.67;3.37;;;;;;;;;;4958272;29;20446;-93
2022/11/27 04:39:26;;;;;;;5.75;3.50;;;;;;;;;;4956763;28;20447;-93
2022/11/27 04:41:52;;;;;;;7.40;4.13;;;;;;;;;;4968529;28;20238;-94
2022/11/27 04:44:18;;;;;;;8.17;3.60;;;;;;;;;;4972854;29;20438;-93
2022/11/27 04:46:48;;;;;;;5.80;3.72;;;;;;;;;;4953398;29;20431;-93
2022/11/27 04:49:14;;;;;;;4.40;4.00;;;;;;;;;;4945518;29;20336;-93
2022/11/27 04:51:43;;;;;;;5.68;4.35;;;;;;;;;;4953933;29;20953;-93
2022/11/27 04:54:09;;;;;;;3.28;3.15;;;;;;;;;;4959089;29;20221;-90
2022/11/27 04:56:35;;;;;;;10.47;4.80;;;;;;;;;;4961231;28;20190;-91
2022/11/27 04:59:08;;;;;;;3.00;2.80;;;;;;;;;;4947794;29;20443;-91
2022/11/27 05:01:39;;;;;;;4.47;3.63;;;;;;;;;;4963282;29;20474;-92
2022/11/27 05:04:06;;;;;;;5.70;4.43;;;;;;;;;;4971136;28;20438;-93
2022/11/27 05:06:32;;;;;;;6.77;4.53;;;;;;;;;;4968150;28;20499;-93
2022/11/27 05:09:01;;;;;;;4.25;3.50;;;;;;;;;;4969230;28;20458;-92
2022/11/27 05:11:30;;;;;;;5.00;4.70;;;;;;;;;;4974300;28;20233;-93
2022/11/27 05:14:16;;;;;;;3.80;3.53;;;;;;;;;;4971693;29;20453;-93
2022/11/27 05:19:34;;;;;;;4.13;3.70;;;;;;;;;;4943612;29;20221;-93
2022/11/27 05:22:01;;;;;;;5.93;4.40;;;;;;;;;;4958198;28;20202;-95
2022/11/27 05:24:27;;;;;;;3.07;2.77;;;;;;;;;;4946364;29;20546;-93
2022/11/27 05:26:54;;;;;;;6.00;3.93;;;;;;;;;;4956094;29;20434;-94
2022/11/27 05:29:20;;;;;;;4.10;3.90;;;;;;;;;;4947157;28;20445;-91
2022/11/27 05:31:47;;;;;;;5.47;4.60;;;;;;;;;;4957139;29;20469;-93
2022/11/27 05:34:15;;;;;;;4.28;3.35;;;;;;;;;;4952368;28;20439;-91
2022/11/27 05:36:42;;;;;;;4.80;4.40;;;;;;;;;;4956338;29;20195;-93
2022/11/27 05:39:11;;;;;;;4.05;3.70;;;;;;;;;;4945367;28;20206;-93
2022/11/27 05:41:50;;;;;;;6.77;4.40;;;;;;;;;;4956701;29;20234;-95
2022/11/27 05:44:20;;;;;;;3.47;3.20;;;;;;;;;;4947082;28;20442;-94
2022/11/27 05:46:46;;;;;;;5.35;4.10;;;;;;;;;;4956870;29;20454;-93
2022/11/27 05:49:13;;;;;;;4.45;3.75;;;;;;;;;;4956451;29;20198;-92
2022/11/27 05:51:41;;;;;;;4.38;4.00;;;;;;;;;;4958169;29;20174;-93
2022/11/27 05:54:10;;;;;;;8.13;4.07;;;;;;;;;;4956747;29;20221;-92
2022/11/27 05:56:36;;;;;;;4.43;3.73;;;;;;;;;;4939308;29;20446;-92
2022/11/27 05:59:05;;;;;;;4.57;3.53;;;;;;;;;;4941616;29;20447;-92
2022/11/27 06:01:37;;;;;;;3.90;3.70;;;;;;;;;;4956297;29;20486;-93
2022/11/27 06:04:03;;;;;;;5.60;4.50;;;;;;;;;;4955171;28;20881;-93
2022/11/27 06:06:29;;;;;;;9.77;4.83;;;;;;;;;;4957263;29;20410;-93
2022/11/27 06:08:58;;;;;;;6.70;4.38;;;;;;;;;;4958587;29;20457;-92
2022/11/27 06:11:27;;;;;;;4.40;3.60;;;;;;;;;;4958846;29;20191;-92
2022/11/27 06:13:53;;;;;;;4.30;3.37;;;;;;;;;;4954743;29;20262;-93
2022/11/27 06:16:21;;;;;;;7.60;4.53;;;;;;;;;;4960042;29;21023;-93
2022/11/27 06:18:51;;;;;;;4.93;4.50;;;;;;;;;;4957025;28;20457;-92
2022/11/27 06:21:21;;;;;;;4.43;4.22;;;;;;;;;;4958853;29;20475;-93
2022/11/27 06:23:48;;;;;;;4.55;4.03;;;;;;;;;;4976997;28;20174;-94
2022/11/27 06:26:18;;;;;;;4.10;3.83;;;;;;;;;;4960314;28;20226;-93
2022/11/27 06:28:45;;;;;;;4.80;4.45;;;;;;;;;;4962381;28;20446;-93
2022/11/27 06:31:21;;;;;;;4.80;4.18;;;;;;;;;;4954823;28;20199;-92
2022/11/27 06:33:50;;;;;;;4.70;4.32;;;;;;;;;;4959986;28;20267;-93
2022/11/27 06:36:17;;;;;;;7.38;6.22;;;;;;;;;;4967967;29;20189;-93
2022/11/27 06:38:56;;;;;;;;;;;;;;;;;;;;;
2022/11/27 06:44:12;;;;;;;3.88;3.58;;;;;;;;;;4947317;29;20429;-91
2022/11/27 06:46:40;;;;;;;4.87;4.47;;;;;;;;;;4958485;29;20194;-92
2022/11/27 06:49:09;;;;;;;5.78;4.55;;;;;;;;;;4955818;29;20969;-94
2022/11/27 06:51:38;;;;;;;4.93;3.83;;;;;;;;;;4968908;29;20206;-93
2022/11/27 10:03:04;;;;;;;2.70;2.70;;;;;;;;;;4599883;23;10002675;-88
2022/11/27 10:06:05;;;;;;;2.90;2.80;;;;;;;;;;4928873;29;20506;-89
2022/11/27 10:09:13;;;;;;;;;;;;;;;;;;;;;
2022/11/27 10:12:00;;;;;;;11.10;5.83;;;;;;;;;;4849651;29;20431;-88
2022/11/27 10:14:46;;;;;;;6.77;3.80;;;;;;;;;;4885635;29;20541;-88
2022/11/27 10:17:34;;;;;;;2.57;2.57;;;;;;;;;;4928640;29;20828;-87
2022/11/27 10:20:03;;;;;;;2.40;2.10;;;;;;;;;;4927523;29;20470;-88
2022/11/27 10:22:32;;;;;;;3.43;3.33;;;;;;;;;;4919780;29;20443;-87
2022/11/27 10:25:18;;;;;;;3.07;2.87;;;;;;;;;;4921141;29;20465;-86
2022/11/27 10:27:54;;;;;;;2.97;2.77;;;;;;;;;;4926423;29;20498;-87
2022/11/27 10:30:36;;;;;;;3.33;3.23;;;;;;;;;;4923312;29;20526;-88
2022/11/27 10:33:04;;;;;;;3.87;3.77;;;;;;;;;;4915085;29;20442;-89
2022/11/27 10:35:42;;;;;;;4.57;3.27;;;;;;;;;;4931455;29;20467;-88
2022/11/27 10:38:14;;;;;;;4.83;2.77;;;;;;;;;;4918449;29;20947;-87
2022/11/27 10:40:54;;;;;;;3.50;3.30;;;;;;;;;;4913593;29;20487;-87
2022/11/27 10:43:25;;;;;;;3.70;3.50;;;;;;;;;;4926510;29;20502;-89
2022/11/27 10:46:07;;;;;;;3.20;3.10;;;;;;;;;;4936425;29;20458;-85
2022/11/27 10:48:33;;;;;;;2.60;2.57;;;;;;;;;;4935414;29;20507;-87
2022/11/27 10:51:22;;;;;;;;;;;;;;;;;;;;;
2022/11/27 11:15:32;;;;;;;5.33;4.90;;;;;;;;;;4943133;23;20997;-88
2022/11/27 11:17:58;;;;;;;16.47;13.37;;;;;;;;;;4913579;29;20538;-87
2022/11/27 11:20:27;;;;;;;4.40;4.20;;;;;;;;;;4916647;29;20479;-92
2022/11/27 11:22:53;;;;;;;4.07;3.87;;;;;;;;;;4911904;29;20559;-87
2022/11/27 11:25:20;;;;;;;13.87;8.50;;;;;;;;;;4903477;29;20870;-86
2022/11/27 11:27:48;;;;;;;6.60;4.30;;;;;;;;;;4902622;29;20499;-88
2022/11/27 11:30:22;;;;;;;3.57;3.43;;;;;;;;;;4907505;29;20855;-86
2022/11/27 11:32:48;;;;;;;3.07;2.90;;;;;;;;;;4893576;29;20446;-86
2022/11/27 11:35:33;;;;;;;3.40;3.23;;;;;;;;;;4910335;29;20444;-87
2022/11/27 11:38:00;;;;;;;2.87;2.63;;;;;;;;;;4889676;29;20806;-87
2022/11/27 11:40:29;;;;;;;3.70;3.50;;;;;;;;;;4892477;29;20518;-86
2022/11/27 11:42:57;;;;;;;2.80;2.70;;;;;;;;;;4884246;29;20487;-87
2022/11/27 11:45:24;;;;;;;3.10;2.90;;;;;;;;;;4893823;29;20444;-84
2022/11/27 11:48:22;;;;;;;3.67;3.33;;;;;;;;;;4908447;29;20499;-93
2022/11/27 11:51:13;;;;;;;2.90;2.70;;;;;;;;;;4907512;29;20431;-92
2022/11/27 11:53:45;;;;;;;2.57;2.57;;;;;;;;;;4886404;29;20428;-90
2022/11/27 14:23:52;;;;;;;2.70;2.60;;;;;;;;;;4616622;28;10000491;-89
2022/11/27 14:26:22;;;;;;;2.53;2.40;;;;;;;;;;4946009;29;20225;-89
2022/11/27 14:28:57;;;;;;;3.57;3.30;;;;;;;;;;4954913;29;20430;-88
2022/11/27 14:31:39;;;;;;;2.37;2.03;;;;;;;;;;4951192;29;20438;-89
2022/11/27 14:34:05;;;;;;;2.57;2.43;;;;;;;;;;4927676;29;21036;-89
2022/11/27 14:36:37;;;;;;;2.30;2.20;;;;;;;;;;4938140;29;20516;-89
2022/11/27 14:39:05;;;;;;;2.50;2.40;;;;;;;;;;4932273;29;20956;-90
2022/11/27 14:41:31;;;;;;;3.37;3.20;;;;;;;;;;4943373;28;20733;-90
2022/11/27 16:42:30;;;;;;;2.53;2.45;;;;;;;;;;5419390;23;10001993;-89
2022/11/27 16:45:01;;;;;;;4.47;2.50;;;;;;;;;;4917753;29;20451;-89
2022/11/27 16:47:31;;;;;;;3.33;3.13;;;;;;;;;;4910197;29;21155;-90
2022/11/27 16:50:00;;;;;;;2.20;2.10;;;;;;;;;;4932879;29;20423;-90
2022/11/27 16:52:26;;;;;;;3.67;3.53;;;;;;;;;;4924285;29;20458;-88
2022/11/27 16:54:57;;;;;;;2.30;2.30;;;;;;;;;;4930891;29;20519;-90
2022/11/27 16:57:30;;;;;;;2.60;2.50;;;;;;;;;;4924194;28;20505;-89
2022/11/27 16:59:56;;;;;;;3.00;2.73;;;;;;;;;;4935201;29;20441;-88
2022/11/27 17:02:27;;;;;;;4.00;2.90;;;;;;;;;;4925111;29;20455;-87
2022/11/27 17:04:58;;;;;;;3.10;2.90;;;;;;;;;;4924449;29;20977;-90
2022/11/27 17:07:24;;;;;;;2.70;2.60;;;;;;;;;;4936103;29;20737;-92
2022/11/27 17:09:50;;;;;;;2.67;2.67;;;;;;;;;;4933310;29;20497;-90
2022/11/27 17:12:16;;;;;;;2.33;2.33;;;;;;;;;;4937698;29;20582;-91
2022/11/27 17:14:45;;;;;;;3.60;3.40;;;;;;;;;;4935451;29;20754;-90
2022/11/27 17:17:11;;;;;;;2.40;2.40;;;;;;;;;;4932053;29;20430;-88
2022/11/27 17:19:37;;;;;;;2.80;2.80;;;;;;;;;;4926483;29;20450;-90
2022/11/27 17:22:04;;;;;;;6.80;2.70;;;;;;;;;;4931686;29;20483;-89
2022/11/27 17:24:30;;;;;;;2.80;2.70;;;;;;;;;;4936649;29;20447;-85
2022/11/27 17:26:56;;;;;;;3.57;3.40;;;;;;;;;;4940972;29;20470;-88
2022/11/27 17:29:33;;;;;;;4.43;4.03;;;;;;;;;;4941574;29;20427;-90
2022/11/27 17:31:59;;;;;;;3.40;3.30;;;;;;;;;;4924679;29;20412;-87
2022/11/27 17:34:28;;;;;;;5.47;3.47;;;;;;;;;;4923264;29;20452;-90
2022/11/27 17:36:56;;;;;;;2.87;2.67;;;;;;;;;;4907860;29;20500;-88
2022/11/27 17:39:22;;;;;;;2.67;2.57;;;;;;;;;;4912591;29;20448;-87
2022/11/27 17:41:58;;;;;;;3.37;3.07;;;;;;;;;;4919055;29;20483;-89
2022/11/27 17:44:46;;;;;;;2.27;2.17;;;;;;;;;;4917808;29;21053;-88
2022/11/27 17:47:10;;;;;;;2.40;2.40;;;;;;;;;;4915075;29;20493;-88
2022/11/27 17:49:36;;;;;;;2.60;2.50;;;;;;;;;;4919994;29;20542;-88
2022/11/27 17:52:05;;;;;;;2.47;2.37;;;;;;;;;;4912594;29;20493;-89
2022/11/27 17:54:43;;;;;;;3.00;2.87;;;;;;;;;;4916660;29;20433;-89
2022/11/27 17:57:23;;;;;;;3.37;3.20;;;;;;;;;;4926035;29;20427;-89
2022/11/27 17:59:52;;;;;;;3.90;3.70;;;;;;;;;;4915110;29;20495;-90
2022/11/27 18:02:18;;;;;;;4.47;4.03;;;;;;;;;;4915376;29;20467;-89
2022/11/27 18:04:47;;;;;;;3.70;3.60;;;;;;;;;;4920628;29;20962;-87
2022/11/27 18:07:13;;;;;;;2.10;2.10;;;;;;;;;;4919641;29;20449;-90
2022/11/27 18:25:14;;;;;;;4.10;3.80;;;;;;;;;;5648984;23;20474;-89
2022/11/27 18:27:49;;;;;;;3.20;3.10;;;;;;;;;;4951515;29;20446;-91
2022/11/27 18:30:15;;;;;;;2.60;2.50;;;;;;;;;;4948939;28;20467;-87
2022/11/27 18:32:41;;;;;;;3.43;3.33;;;;;;;;;;4590595;29;10000389;-89
2022/11/27 18:35:08;;;;;;;2.40;2.30;;;;;;;;;;4936700;29;20745;-88
2022/11/27 18:37:37;;;;;;;3.07;2.97;;;;;;;;;;4940561;29;20451;-87
2022/11/27 18:40:03;;;;;;;2.83;2.73;;;;;;;;;;4932027;29;20463;-85
2022/11/27 18:42:31;;;;;;;3.97;3.20;;;;;;;;;;4927357;29;20443;-85
2022/11/27 18:44:57;;;;;;;2.73;2.50;;;;;;;;;;4932794;29;20501;-87
2022/11/27 18:47:24;;;;;;;2.40;1.70;;;;;;;;;;4930399;29;20451;-88
2022/11/27 18:49:50;;;;;;;3.03;2.93;;;;;;;;;;4929734;29;20443;-90
2022/11/27 18:52:16;;;;;;;3.67;2.70;;;;;;;;;;4944235;28;20443;-89
2022/11/27 18:54:43;;;;;;;3.77;3.57;;;;;;;;;;4930569;29;20969;-89
2022/11/27 18:57:10;;;;;;;4.97;4.03;;;;;;;;;;4939816;29;20443;-89
2022/11/27 18:59:36;;;;;;;18.03;13.30;;;;;;;;;;4937742;29;20439;-88
2022/11/27 19:02:03;;;;;;;3.67;3.47;;;;;;;;;;4928672;29;20768;-90
2022/11/27 19:04:29;;;;;;;2.93;2.83;;;;;;;;;;4933294;29;20556;-89
2022/11/27 19:06:55;;;;;;;4.97;4.53;;;;;;;;;;4947757;29;20439;-91
2022/11/27 19:09:25;;;;;;;3.70;3.50;;;;;;;;;;4947420;29;20502;-89
